The Hangar Logo

METARs in Plain English
Latest METAR information for EGVN - BRIZE NORTON

EGVN 301450Z 19005KT 9999 FEW015 SCT036 18/14 Q1017 BLU NOSIG

In plain english is....

This is a METAR report for EGVN - BRIZE NORTON .
The report was made 64 minutes ago, at 14:50 UTC.
The wind was blowing at a speed of 5 knots (5.8 miles per hour, 2.6 metres per second) from the South (190°).
The visibility was greater than 6.2 miles (greater than 10 kilometres).
There were a few clouds at a height of 1500 feet (457 metres) and scattered clouds at a height of 3600 feet (1097 metres).
The temperature was 18°C (64°F), a dew point of 14°C (57°F) and a relative humidity of 77.5%.
The altimeter setting (airfield QNH) was 1,017 hPa (30.03 inHg).
Other remarks BLU NOSIG.

UK Mainland

Ireland

Channel Islands

France

Other



Enter
Tel: 07092 887559 - Fax: 07092 183262

Terms of Use | Privacy Statement
Content copyright © 1999-2012 TheHangar.co.uk. All rights reserved.
Please send your questions, comments, or bug reports to the Webmaster.